sensor_id;sensor_type;location;lat;lon;timestamp;P1;durP1;ratioP1;P2;durP2;ratioP2
29812;SDS011;16707;48.106;11.548;2023-02-10T00:01:41;24.05;;;13.13;;
29812;SDS011;16707;48.106;11.548;2023-02-10T00:04:10;23.38;;;13.25;;
29812;SDS011;16707;48.106;11.548;2023-02-10T00:06:37;22.58;;;14.35;;
29812;SDS011;16707;48.106;11.548;2023-02-10T00:09:07;23.73;;;13.40;;
29812;SDS011;16707;48.106;11.548;2023-02-10T00:11:36;21.85;;;13.13;;
29812;SDS011;16707;48.106;11.548;2023-02-10T00:16:48;24.33;;;13.00;;
29812;SDS011;16707;48.106;11.548;2023-02-10T00:19:16;20.00;;;14.38;;
29812;SDS011;16707;48.106;11.548;2023-02-10T00:21:44;23.20;;;14.82;;
29812;SDS011;16707;48.106;11.548;2023-02-10T00:24:12;21.38;;;13.07;;
29812;SDS011;16707;48.106;11.548;2023-02-10T00:26:39;23.27;;;13.65;;
29812;SDS011;16707;48.106;11.548;2023-02-10T00:29:06;22.63;;;13.13;;
29812;SDS011;16707;48.106;11.548;2023-02-10T00:31:33;26.38;;;14.30;;
29812;SDS011;16707;48.106;11.548;2023-02-10T00:34:00;24.95;;;13.30;;
29812;SDS011;16707;48.106;11.548;2023-02-10T00:36:26;20.48;;;13.38;;
29812;SDS011;16707;48.106;11.548;2023-02-10T00:38:54;22.50;;;13.90;;
29812;SDS011;16707;48.106;11.548;2023-02-10T00:41:22;24.60;;;14.10;;
29812;SDS011;16707;48.106;11.548;2023-02-10T00:43:50;23.38;;;13.50;;
29812;SDS011;16707;48.106;11.548;2023-02-10T00:46:18;24.70;;;13.38;;
29812;SDS011;16707;48.106;11.548;2023-02-10T00:48:47;24.08;;;12.93;;
29812;SDS011;16707;48.106;11.548;2023-02-10T00:51:14;24.63;;;14.02;;
29812;SDS011;16707;48.106;11.548;2023-02-10T00:53:42;22.10;;;14.38;;
29812;SDS011;16707;48.106;11.548;2023-02-10T00:56:10;21.88;;;14.20;;
29812;SDS011;16707;48.106;11.548;2023-02-10T00:58:39;22.80;;;13.50;;
29812;SDS011;16707;48.106;11.548;2023-02-10T01:01:05;20.90;;;13.05;;
29812;SDS011;16707;48.106;11.548;2023-02-10T01:03:32;21.40;;;13.38;;
29812;SDS011;16707;48.106;11.548;2023-02-10T01:06:00;22.73;;;14.23;;
29812;SDS011;16707;48.106;11.548;2023-02-10T01:08:27;24.58;;;14.07;;
29812;SDS011;16707;48.106;11.548;2023-02-10T01:10:57;23.23;;;14.15;;
29812;SDS011;16707;48.106;11.548;2023-02-10T01:13:25;24.13;;;14.25;;
29812;SDS011;16707;48.106;11.548;2023-02-10T01:15:53;26.70;;;13.95;;
29812;SDS011;16707;48.106;11.548;2023-02-10T01:18:20;22.80;;;14.10;;
29812;SDS011;16707;48.106;11.548;2023-02-10T01:20:48;25.40;;;14.57;;
29812;SDS011;16707;48.106;11.548;2023-02-10T01:23:14;25.20;;;13.50;;
29812;SDS011;16707;48.106;11.548;2023-02-10T01:25:41;23.45;;;14.30;;
29812;SDS011;16707;48.106;11.548;2023-02-10T01:28:08;23.10;;;14.63;;
29812;SDS011;16707;48.106;11.548;2023-02-10T01:30:36;21.42;;;13.43;;
29812;SDS011;16707;48.106;11.548;2023-02-10T01:33:04;21.55;;;13.98;;
29812;SDS011;16707;48.106;11.548;2023-02-10T01:35:31;25.35;;;13.88;;
29812;SDS011;16707;48.106;11.548;2023-02-10T01:37:58;24.40;;;15.60;;
29812;SDS011;16707;48.106;11.548;2023-02-10T01:40:25;25.85;;;14.80;;
29812;SDS011;16707;48.106;11.548;2023-02-10T01:42:53;26.27;;;14.20;;
29812;SDS011;16707;48.106;11.548;2023-02-10T01:45:20;19.98;;;13.32;;
29812;SDS011;16707;48.106;11.548;2023-02-10T01:47:51;22.52;;;13.48;;
29812;SDS011;16707;48.106;11.548;2023-02-10T01:50:22;25.52;;;13.40;;
29812;SDS011;16707;48.106;11.548;2023-02-10T01:52:52;21.30;;;12.75;;
29812;SDS011;16707;48.106;11.548;2023-02-10T01:55:20;21.92;;;13.07;;
29812;SDS011;16707;48.106;11.548;2023-02-10T01:57:49;22.20;;;12.82;;
29812;SDS011;16707;48.106;11.548;2023-02-10T02:00:19;22.98;;;14.05;;
29812;SDS011;16707;48.106;11.548;2023-02-10T02:02:47;23.45;;;13.75;;
29812;SDS011;16707;48.106;11.548;2023-02-10T02:05:20;21.70;;;13.85;;
29812;SDS011;16707;48.106;11.548;2023-02-10T02:07:56;17.33;;;12.00;;
29812;SDS011;16707;48.106;11.548;2023-02-10T02:10:29;22.08;;;12.88;;
29812;SDS011;16707;48.106;11.548;2023-02-10T02:13:06;24.73;;;14.52;;
29812;SDS011;16707;48.106;11.548;2023-02-10T02:15:38;23.83;;;13.37;;
29812;SDS011;16707;48.106;11.548;2023-02-10T02:18:12;21.08;;;13.02;;
29812;SDS011;16707;48.106;11.548;2023-02-10T02:20:53;25.08;;;13.63;;
29812;SDS011;16707;48.106;11.548;2023-02-10T02:23:39;20.77;;;13.13;;
29812;SDS011;16707;48.106;11.548;2023-02-10T02:26:33;24.73;;;13.32;;
29812;SDS011;16707;48.106;11.548;2023-02-10T02:29:19;19.60;;;12.38;;
29812;SDS011;16707;48.106;11.548;2023-02-10T02:32:02;20.75;;;12.13;;
29812;SDS011;16707;48.106;11.548;2023-02-10T02:34:33;20.23;;;13.93;;
29812;SDS011;16707;48.106;11.548;2023-02-10T02:37:06;20.55;;;13.18;;
29812;SDS011;16707;48.106;11.548;2023-02-10T02:39:37;18.45;;;13.52;;
29812;SDS011;16707;48.106;11.548;2023-02-10T02:42:14;21.88;;;12.63;;
29812;SDS011;16707;48.106;11.548;2023-02-10T02:44:46;23.80;;;13.20;;
29812;SDS011;16707;48.106;11.548;2023-02-10T02:47:20;23.05;;;14.43;;
29812;SDS011;16707;48.106;11.548;2023-02-10T02:49:58;21.88;;;14.25;;
29812;SDS011;16707;48.106;11.548;2023-02-10T02:52:35;23.25;;;15.00;;
29812;SDS011;16707;48.106;11.548;2023-02-10T02:55:17;21.45;;;13.75;;
29812;SDS011;16707;48.106;11.548;2023-02-10T02:57:50;23.55;;;13.25;;
29812;SDS011;16707;48.106;11.548;2023-02-10T03:00:22;22.27;;;13.55;;
29812;SDS011;16707;48.106;11.548;2023-02-10T03:02:53;23.98;;;15.05;;
29812;SDS011;16707;48.106;11.548;2023-02-10T03:05:22;27.63;;;14.15;;
29812;SDS011;16707;48.106;11.548;2023-02-10T03:07:54;22.00;;;13.60;;
29812;SDS011;16707;48.106;11.548;2023-02-10T03:10:20;23.30;;;13.82;;
29812;SDS011;16707;48.106;11.548;2023-02-10T03:12:47;20.60;;;13.00;;
29812;SDS011;16707;48.106;11.548;2023-02-10T03:15:15;20.75;;;12.93;;
29812;SDS011;16707;48.106;11.548;2023-02-10T03:17:43;23.48;;;13.73;;
29812;SDS011;16707;48.106;11.548;2023-02-10T03:20:11;24.67;;;13.23;;
29812;SDS011;16707;48.106;11.548;2023-02-10T03:22:38;19.92;;;12.35;;
29812;SDS011;16707;48.106;11.548;2023-02-10T03:25:07;18.80;;;11.73;;
29812;SDS011;16707;48.106;11.548;2023-02-10T03:27:34;22.05;;;13.25;;
29812;SDS011;16707;48.106;11.548;2023-02-10T03:30:01;19.70;;;12.25;;
29812;SDS011;16707;48.106;11.548;2023-02-10T03:32:28;19.13;;;13.05;;
29812;SDS011;16707;48.106;11.548;2023-02-10T03:34:55;23.27;;;12.60;;
29812;SDS011;16707;48.106;11.548;2023-02-10T03:37:23;24.00;;;13.05;;
29812;SDS011;16707;48.106;11.548;2023-02-10T03:39:50;20.30;;;12.75;;
29812;SDS011;16707;48.106;11.548;2023-02-10T03:42:17;20.45;;;12.77;;
29812;SDS011;16707;48.106;11.548;2023-02-10T03:44:44;22.08;;;12.98;;
29812;SDS011;16707;48.106;11.548;2023-02-10T03:47:11;23.38;;;13.40;;
29812;SDS011;16707;48.106;11.548;2023-02-10T03:49:37;27.50;;;12.95;;
29812;SDS011;16707;48.106;11.548;2023-02-10T03:52:04;20.05;;;11.38;;
29812;SDS011;16707;48.106;11.548;2023-02-10T03:54:32;20.58;;;12.38;;
29812;SDS011;16707;48.106;11.548;2023-02-10T03:56:59;18.60;;;13.02;;
29812;SDS011;16707;48.106;11.548;2023-02-10T03:59:26;19.55;;;11.90;;
29812;SDS011;16707;48.106;11.548;2023-02-10T04:01:53;19.30;;;11.50;;
29812;SDS011;16707;48.106;11.548;2023-02-10T04:04:20;20.67;;;12.15;;
29812;SDS011;16707;48.106;11.548;2023-02-10T04:06:47;17.13;;;11.10;;
29812;SDS011;16707;48.106;11.548;2023-02-10T04:09:14;19.08;;;11.35;;
29812;SDS011;16707;48.106;11.548;2023-02-10T04:11:42;18.38;;;11.15;;
29812;SDS011;16707;48.106;11.548;2023-02-10T04:14:09;17.33;;;10.40;;
29812;SDS011;16707;48.106;11.548;2023-02-10T04:16:36;19.60;;;11.73;;
29812;SDS011;16707;48.106;11.548;2023-02-10T04:19:03;18.20;;;11.80;;
29812;SDS011;16707;48.106;11.548;2023-02-10T04:21:30;21.45;;;11.90;;
29812;SDS011;16707;48.106;11.548;2023-02-10T04:23:57;20.40;;;11.80;;
29812;SDS011;16707;48.106;11.548;2023-02-10T04:26:23;17.98;;;10.75;;
29812;SDS011;16707;48.106;11.548;2023-02-10T04:28:52;15.68;;;10.82;;
29812;SDS011;16707;48.106;11.548;2023-02-10T04:31:19;16.20;;;11.10;;
29812;SDS011;16707;48.106;11.548;2023-02-10T04:33:46;18.08;;;10.15;;
29812;SDS011;16707;48.106;11.548;2023-02-10T04:36:13;16.92;;;10.85;;
29812;SDS011;16707;48.106;11.548;2023-02-10T04:38:39;15.38;;;10.40;;
29812;SDS011;16707;48.106;11.548;2023-02-10T04:41:06;16.02;;;10.43;;
29812;SDS011;16707;48.106;11.548;2023-02-10T04:43:33;17.65;;;10.40;;
29812;SDS011;16707;48.106;11.548;2023-02-10T04:46:02;18.05;;;9.75;;
29812;SDS011;16707;48.106;11.548;2023-02-10T04:48:29;11.65;;;8.60;;
29812;SDS011;16707;48.106;11.548;2023-02-10T04:50:56;14.88;;;9.45;;
29812;SDS011;16707;48.106;11.548;2023-02-10T04:53:23;14.10;;;9.73;;
29812;SDS011;16707;48.106;11.548;2023-02-10T04:55:50;16.80;;;10.05;;
29812;SDS011;16707;48.106;11.548;2023-02-10T04:58:17;17.98;;;9.48;;
29812;SDS011;16707;48.106;11.548;2023-02-10T05:00:44;16.45;;;10.75;;
29812;SDS011;16707;48.106;11.548;2023-02-10T05:03:12;16.55;;;9.80;;
29812;SDS011;16707;48.106;11.548;2023-02-10T05:05:39;15.90;;;9.90;;
29812;SDS011;16707;48.106;11.548;2023-02-10T05:08:06;15.77;;;9.68;;
29812;SDS011;16707;48.106;11.548;2023-02-10T05:10:33;15.18;;;9.38;;
29812;SDS011;16707;48.106;11.548;2023-02-10T05:13:00;17.05;;;9.38;;
29812;SDS011;16707;48.106;11.548;2023-02-10T05:15:27;17.95;;;10.80;;
29812;SDS011;16707;48.106;11.548;2023-02-10T05:17:54;16.95;;;10.57;;
29812;SDS011;16707;48.106;11.548;2023-02-10T05:20:22;13.32;;;9.40;;
29812;SDS011;16707;48.106;11.548;2023-02-10T05:22:49;16.70;;;9.93;;
29812;SDS011;16707;48.106;11.548;2023-02-10T05:25:16;14.82;;;9.43;;
29812;SDS011;16707;48.106;11.548;2023-02-10T05:27:43;18.40;;;11.25;;
29812;SDS011;16707;48.106;11.548;2023-02-10T05:30:10;18.00;;;10.98;;
29812;SDS011;16707;48.106;11.548;2023-02-10T05:32:39;15.27;;;9.98;;
29812;SDS011;16707;48.106;11.548;2023-02-10T05:35:06;16.80;;;9.05;;
29812;SDS011;16707;48.106;11.548;2023-02-10T05:37:35;16.25;;;10.45;;
29812;SDS011;16707;48.106;11.548;2023-02-10T05:40:02;18.00;;;10.35;;
29812;SDS011;16707;48.106;11.548;2023-02-10T05:42:30;17.60;;;11.50;;
29812;SDS011;16707;48.106;11.548;2023-02-10T05:44:57;13.70;;;9.23;;
29812;SDS011;16707;48.106;11.548;2023-02-10T05:47:24;17.00;;;10.05;;
29812;SDS011;16707;48.106;11.548;2023-02-10T05:49:50;17.77;;;10.00;;
29812;SDS011;16707;48.106;11.548;2023-02-10T05:52:17;17.67;;;10.90;;
29812;SDS011;16707;48.106;11.548;2023-02-10T05:54:46;17.98;;;10.98;;
29812;SDS011;16707;48.106;11.548;2023-02-10T05:57:13;16.45;;;10.57;;
29812;SDS011;16707;48.106;11.548;2023-02-10T05:59:39;17.85;;;10.63;;
29812;SDS011;16707;48.106;11.548;2023-02-10T06:02:07;16.48;;;10.60;;
29812;SDS011;16707;48.106;11.548;2023-02-10T06:04:34;16.15;;;10.35;;
29812;SDS011;16707;48.106;11.548;2023-02-10T06:07:00;17.38;;;10.45;;
29812;SDS011;16707;48.106;11.548;2023-02-10T06:09:27;20.00;;;11.77;;
29812;SDS011;16707;48.106;11.548;2023-02-10T06:11:55;17.08;;;10.07;;
29812;SDS011;16707;48.106;11.548;2023-02-10T06:14:23;16.35;;;10.73;;
29812;SDS011;16707;48.106;11.548;2023-02-10T06:16:50;15.23;;;10.15;;
29812;SDS011;16707;48.106;11.548;2023-02-10T06:19:17;15.93;;;10.07;;
29812;SDS011;16707;48.106;11.548;2023-02-10T06:21:44;14.70;;;10.15;;
29812;SDS011;16707;48.106;11.548;2023-02-10T06:24:10;17.58;;;10.32;;
29812;SDS011;16707;48.106;11.548;2023-02-10T06:26:37;14.75;;;10.38;;
29812;SDS011;16707;48.106;11.548;2023-02-10T06:29:06;18.20;;;11.25;;
29812;SDS011;16707;48.106;11.548;2023-02-10T06:31:34;16.00;;;9.77;;
29812;SDS011;16707;48.106;11.548;2023-02-10T06:34:00;13.77;;;9.27;;
29812;SDS011;16707;48.106;11.548;2023-02-10T06:36:28;17.17;;;10.55;;
29812;SDS011;16707;48.106;11.548;2023-02-10T06:38:54;16.05;;;9.85;;
29812;SDS011;16707;48.106;11.548;2023-02-10T06:41:21;16.27;;;9.48;;
29812;SDS011;16707;48.106;11.548;2023-02-10T06:43:48;15.65;;;9.32;;
29812;SDS011;16707;48.106;11.548;2023-02-10T06:46:17;15.50;;;9.90;;
29812;SDS011;16707;48.106;11.548;2023-02-10T06:48:44;18.13;;;9.80;;
29812;SDS011;16707;48.106;11.548;2023-02-10T06:51:11;15.77;;;9.27;;
29812;SDS011;16707;48.106;11.548;2023-02-10T06:53:38;17.65;;;10.68;;
29812;SDS011;16707;48.106;11.548;2023-02-10T06:56:05;14.18;;;8.88;;
29812;SDS011;16707;48.106;11.548;2023-02-10T06:58:32;13.75;;;9.25;;
29812;SDS011;16707;48.106;11.548;2023-02-10T07:00:59;14.38;;;10.27;;
29812;SDS011;16707;48.106;11.548;2023-02-10T07:03:28;14.88;;;9.85;;
29812;SDS011;16707;48.106;11.548;2023-02-10T07:05:55;14.50;;;9.13;;
29812;SDS011;16707;48.106;11.548;2023-02-10T07:08:22;15.77;;;8.65;;
29812;SDS011;16707;48.106;11.548;2023-02-10T07:10:48;14.98;;;9.80;;
29812;SDS011;16707;48.106;11.548;2023-02-10T07:13:15;13.38;;;9.18;;
29812;SDS011;16707;48.106;11.548;2023-02-10T07:15:42;12.93;;;8.35;;
29812;SDS011;16707;48.106;11.548;2023-02-10T07:18:09;14.07;;;9.63;;
29812;SDS011;16707;48.106;11.548;2023-02-10T07:20:38;12.93;;;8.85;;
29812;SDS011;16707;48.106;11.548;2023-02-10T07:23:04;12.30;;;8.55;;
29812;SDS011;16707;48.106;11.548;2023-02-10T07:25:31;12.20;;;8.23;;
29812;SDS011;16707;48.106;11.548;2023-02-10T07:27:58;11.65;;;7.68;;
29812;SDS011;16707;48.106;11.548;2023-02-10T07:30:26;14.50;;;7.63;;
29812;SDS011;16707;48.106;11.548;2023-02-10T07:32:53;11.48;;;6.78;;
29812;SDS011;16707;48.106;11.548;2023-02-10T07:35:19;14.93;;;9.88;;
29812;SDS011;16707;48.106;11.548;2023-02-10T07:37:48;12.43;;;7.00;;
29812;SDS011;16707;48.106;11.548;2023-02-10T07:40:15;10.43;;;7.00;;
29812;SDS011;16707;48.106;11.548;2023-02-10T07:42:41;14.35;;;7.82;;
29812;SDS011;16707;48.106;11.548;2023-02-10T07:45:08;12.63;;;7.43;;
29812;SDS011;16707;48.106;11.548;2023-02-10T07:47:35;11.95;;;7.45;;
29812;SDS011;16707;48.106;11.548;2023-02-10T07:50:02;11.85;;;7.13;;
29812;SDS011;16707;48.106;11.548;2023-02-10T07:52:30;10.05;;;6.47;;
29812;SDS011;16707;48.106;11.548;2023-02-10T07:54:58;14.90;;;7.53;;
29812;SDS011;16707;48.106;11.548;2023-02-10T07:57:27;10.18;;;6.05;;
29812;SDS011;16707;48.106;11.548;2023-02-10T07:59:54;10.73;;;6.60;;
29812;SDS011;16707;48.106;11.548;2023-02-10T08:02:21;11.43;;;7.68;;
29812;SDS011;16707;48.106;11.548;2023-02-10T08:04:48;9.35;;;6.45;;
29812;SDS011;16707;48.106;11.548;2023-02-10T08:07:17;8.90;;;6.22;;
29812;SDS011;16707;48.106;11.548;2023-02-10T08:09:44;9.70;;;6.65;;
29812;SDS011;16707;48.106;11.548;2023-02-10T08:12:12;12.57;;;7.53;;
29812;SDS011;16707;48.106;11.548;2023-02-10T08:14:39;11.13;;;6.68;;
29812;SDS011;16707;48.106;11.548;2023-02-10T08:17:06;10.07;;;5.57;;
29812;SDS011;16707;48.106;11.548;2023-02-10T08:19:33;10.30;;;5.90;;
29812;SDS011;16707;48.106;11.548;2023-02-10T08:22:01;12.35;;;6.85;;
29812;SDS011;16707;48.106;11.548;2023-02-10T08:24:28;9.77;;;5.47;;
29812;SDS011;16707;48.106;11.548;2023-02-10T08:26:56;12.32;;;6.13;;
29812;SDS011;16707;48.106;11.548;2023-02-10T08:29:24;12.77;;;6.35;;
29812;SDS011;16707;48.106;11.548;2023-02-10T08:31:51;12.20;;;5.95;;
29812;SDS011;16707;48.106;11.548;2023-02-10T08:34:19;11.65;;;5.68;;
29812;SDS011;16707;48.106;11.548;2023-02-10T08:36:47;11.00;;;5.10;;
29812;SDS011;16707;48.106;11.548;2023-02-10T08:39:14;9.00;;;5.43;;
29812;SDS011;16707;48.106;11.548;2023-02-10T08:41:42;14.43;;;5.43;;
29812;SDS011;16707;48.106;11.548;2023-02-10T08:44:09;7.82;;;5.47;;
29812;SDS011;16707;48.106;11.548;2023-02-10T08:46:39;12.48;;;7.25;;
29812;SDS011;16707;48.106;11.548;2023-02-10T08:49:06;10.95;;;5.82;;
29812;SDS011;16707;48.106;11.548;2023-02-10T08:51:33;11.05;;;5.88;;
29812;SDS011;16707;48.106;11.548;2023-02-10T08:54:00;10.05;;;5.88;;
29812;SDS011;16707;48.106;11.548;2023-02-10T08:56:28;10.65;;;6.35;;
29812;SDS011;16707;48.106;11.548;2023-02-10T08:58:55;9.65;;;6.07;;
29812;SDS011;16707;48.106;11.548;2023-02-10T09:01:23;16.20;;;7.20;;
29812;SDS011;16707;48.106;11.548;2023-02-10T09:03:53;10.55;;;7.00;;
29812;SDS011;16707;48.106;11.548;2023-02-10T09:06:22;13.50;;;7.68;;
29812;SDS011;16707;48.106;11.548;2023-02-10T09:08:50;11.90;;;6.93;;
29812;SDS011;16707;48.106;11.548;2023-02-10T09:11:19;14.20;;;7.57;;
29812;SDS011;16707;48.106;11.548;2023-02-10T09:13:48;11.18;;;7.60;;
29812;SDS011;16707;48.106;11.548;2023-02-10T09:16:16;14.15;;;8.10;;
29812;SDS011;16707;48.106;11.548;2023-02-10T09:18:43;15.23;;;7.93;;
29812;SDS011;16707;48.106;11.548;2023-02-10T09:21:11;17.17;;;8.77;;
29812;SDS011;16707;48.106;11.548;2023-02-10T09:23:38;13.90;;;7.38;;
29812;SDS011;16707;48.106;11.548;2023-02-10T09:26:05;14.85;;;8.10;;
29812;SDS011;16707;48.106;11.548;2023-02-10T09:28:32;16.77;;;8.80;;
29812;SDS011;16707;48.106;11.548;2023-02-10T09:31:00;14.30;;;7.85;;
29812;SDS011;16707;48.106;11.548;2023-02-10T09:33:29;14.10;;;8.88;;
29812;SDS011;16707;48.106;11.548;2023-02-10T09:35:56;21.52;;;10.48;;
29812;SDS011;16707;48.106;11.548;2023-02-10T09:38:25;16.88;;;9.50;;
29812;SDS011;16707;48.106;11.548;2023-02-10T09:40:55;16.95;;;9.30;;
29812;SDS011;16707;48.106;11.548;2023-02-10T09:43:33;19.55;;;9.48;;
29812;SDS011;16707;48.106;11.548;2023-02-10T09:46:20;19.42;;;9.68;;
29812;SDS011;16707;48.106;11.548;2023-02-10T09:48:59;15.98;;;9.00;;
29812;SDS011;16707;48.106;11.548;2023-02-10T09:51:37;19.42;;;10.15;;
29812;SDS011;16707;48.106;11.548;2023-02-10T09:54:11;16.50;;;9.32;;
29812;SDS011;16707;48.106;11.548;2023-02-10T09:56:39;20.23;;;11.80;;
29812;SDS011;16707;48.106;11.548;2023-02-10T09:59:06;19.67;;;10.98;;
29812;SDS011;16707;48.106;11.548;2023-02-10T10:01:41;21.65;;;11.35;;
29812;SDS011;16707;48.106;11.548;2023-02-10T10:04:13;17.67;;;10.68;;
29812;SDS011;16707;48.106;11.548;2023-02-10T10:06:43;21.92;;;11.90;;
29812;SDS011;16707;48.106;11.548;2023-02-10T10:09:15;18.25;;;11.00;;
29812;SDS011;16707;48.106;11.548;2023-02-10T10:11:50;20.05;;;11.57;;
29812;SDS011;16707;48.106;11.548;2023-02-10T10:14:19;21.50;;;11.38;;
29812;SDS011;16707;48.106;11.548;2023-02-10T10:16:51;24.35;;;13.27;;
29812;SDS011;16707;48.106;11.548;2023-02-10T10:19:28;20.85;;;11.35;;
29812;SDS011;16707;48.106;11.548;2023-02-10T10:22:12;20.73;;;11.20;;
29812;SDS011;16707;48.106;11.548;2023-02-10T10:24:57;24.10;;;11.82;;
29812;SDS011;16707;48.106;11.548;2023-02-10T10:27:38;19.40;;;11.38;;
29812;SDS011;16707;48.106;11.548;2023-02-10T10:30:18;21.00;;;10.90;;
29812;SDS011;16707;48.106;11.548;2023-02-10T10:32:52;21.98;;;12.38;;
29812;SDS011;16707;48.106;11.548;2023-02-10T10:35:25;22.33;;;12.20;;
29812;SDS011;16707;48.106;11.548;2023-02-10T10:37:56;21.60;;;12.30;;
29812;SDS011;16707;48.106;11.548;2023-02-10T10:40:26;22.05;;;12.75;;
29812;SDS011;16707;48.106;11.548;2023-02-10T10:42:55;24.83;;;12.90;;
29812;SDS011;16707;48.106;11.548;2023-02-10T10:45:26;22.35;;;12.35;;
29812;SDS011;16707;48.106;11.548;2023-02-10T10:47:56;21.67;;;11.57;;
29812;SDS011;16707;48.106;11.548;2023-02-10T10:50:27;22.95;;;12.77;;
29812;SDS011;16707;48.106;11.548;2023-02-10T10:52:55;25.85;;;13.23;;
29812;SDS011;16707;48.106;11.548;2023-02-10T10:55:26;22.38;;;12.55;;
29812;SDS011;16707;48.106;11.548;2023-02-10T10:57:58;21.42;;;12.50;;
29812;SDS011;16707;48.106;11.548;2023-02-10T11:00:27;19.95;;;12.55;;
29812;SDS011;16707;48.106;11.548;2023-02-10T11:02:56;23.83;;;13.13;;
29812;SDS011;16707;48.106;11.548;2023-02-10T11:05:26;19.77;;;11.88;;
29812;SDS011;16707;48.106;11.548;2023-02-10T11:07:56;22.38;;;12.20;;
29812;SDS011;16707;48.106;11.548;2023-02-10T11:10:25;26.13;;;12.40;;
29812;SDS011;16707;48.106;11.548;2023-02-10T11:12:56;21.17;;;12.68;;
29812;SDS011;16707;48.106;11.548;2023-02-10T11:15:33;19.63;;;11.48;;
29812;SDS011;16707;48.106;11.548;2023-02-10T11:18:04;18.95;;;11.48;;
29812;SDS011;16707;48.106;11.548;2023-02-10T11:20:34;22.58;;;12.27;;
29812;SDS011;16707;48.106;11.548;2023-02-10T11:23:03;19.17;;;11.68;;
29812;SDS011;16707;48.106;11.548;2023-02-10T11:25:39;20.80;;;12.43;;
29812;SDS011;16707;48.106;11.548;2023-02-10T11:28:07;25.15;;;12.93;;
29812;SDS011;16707;48.106;11.548;2023-02-10T11:30:45;24.27;;;11.48;;
29812;SDS011;16707;48.106;11.548;2023-02-10T11:33:18;19.75;;;11.18;;
29812;SDS011;16707;48.106;11.548;2023-02-10T11:35:48;21.95;;;11.50;;
29812;SDS011;16707;48.106;11.548;2023-02-10T11:38:17;21.90;;;12.60;;
29812;SDS011;16707;48.106;11.548;2023-02-10T11:40:49;20.48;;;10.98;;
29812;SDS011;16707;48.106;11.548;2023-02-10T11:43:18;17.23;;;11.35;;
29812;SDS011;16707;48.106;11.548;2023-02-10T11:45:53;22.80;;;12.20;;
29812;SDS011;16707;48.106;11.548;2023-02-10T11:48:22;20.33;;;12.45;;
29812;SDS011;16707;48.106;11.548;2023-02-10T11:50:59;24.17;;;13.25;;
29812;SDS011;16707;48.106;11.548;2023-02-10T11:53:28;16.85;;;10.57;;
29812;SDS011;16707;48.106;11.548;2023-02-10T11:56:01;19.35;;;10.85;;
29812;SDS011;16707;48.106;11.548;2023-02-10T11:58:35;17.08;;;10.32;;
29812;SDS011;16707;48.106;11.548;2023-02-10T12:04:23;17.50;;;10.38;;
29812;SDS011;16707;48.106;11.548;2023-02-10T12:07:06;17.58;;;10.32;;
29812;SDS011;16707;48.106;11.548;2023-02-10T12:09:40;18.65;;;9.45;;
29812;SDS011;16707;48.106;11.548;2023-02-10T12:12:16;16.92;;;9.05;;
29812;SDS011;16707;48.106;11.548;2023-02-10T12:14:51;19.92;;;10.88;;
29812;SDS011;16707;48.106;11.548;2023-02-10T12:17:29;17.08;;;9.73;;
29812;SDS011;16707;48.106;11.548;2023-02-10T12:20:06;14.23;;;8.20;;
29812;SDS011;16707;48.106;11.548;2023-02-10T12:22:58;14.55;;;8.43;;
29812;SDS011;16707;48.106;11.548;2023-02-10T12:25:50;12.32;;;7.15;;
29812;SDS011;16707;48.106;11.548;2023-02-10T12:28:26;15.15;;;9.18;;
29812;SDS011;16707;48.106;11.548;2023-02-10T12:31:01;15.90;;;8.63;;
29812;SDS011;16707;48.106;11.548;2023-02-10T12:33:40;19.13;;;11.23;;
29812;SDS011;16707;48.106;11.548;2023-02-10T12:36:15;20.23;;;11.50;;
29812;SDS011;16707;48.106;11.548;2023-02-10T12:38:56;18.08;;;10.88;;
29812;SDS011;16707;48.106;11.548;2023-02-10T12:41:33;18.25;;;10.80;;
29812;SDS011;16707;48.106;11.548;2023-02-10T12:44:13;19.15;;;11.02;;
29812;SDS011;16707;48.106;11.548;2023-02-10T12:47:03;19.13;;;11.43;;
29812;SDS011;16707;48.106;11.548;2023-02-10T12:49:48;22.00;;;11.38;;
29812;SDS011;16707;48.106;11.548;2023-02-10T12:52:25;22.60;;;11.60;;
29812;SDS011;16707;48.106;11.548;2023-02-10T12:54:59;15.18;;;8.75;;
29812;SDS011;16707;48.106;11.548;2023-02-10T12:57:32;14.70;;;8.98;;
29812;SDS011;16707;48.106;11.548;2023-02-10T13:00:09;16.92;;;9.77;;
29812;SDS011;16707;48.106;11.548;2023-02-10T13:02:42;18.10;;;10.32;;
29812;SDS011;16707;48.106;11.548;2023-02-10T13:05:15;17.88;;;10.38;;
29812;SDS011;16707;48.106;11.548;2023-02-10T13:07:48;20.15;;;10.35;;
29812;SDS011;16707;48.106;11.548;2023-02-10T13:10:18;20.85;;;11.30;;
29812;SDS011;16707;48.106;11.548;2023-02-10T13:12:51;20.83;;;12.18;;
29812;SDS011;16707;48.106;11.548;2023-02-10T13:15:23;13.70;;;9.30;;
29812;SDS011;16707;48.106;11.548;2023-02-10T13:17:54;16.13;;;9.25;;
29812;SDS011;16707;48.106;11.548;2023-02-10T13:20:24;14.63;;;8.43;;
29812;SDS011;16707;48.106;11.548;2023-02-10T13:22:55;16.13;;;9.07;;
29812;SDS011;16707;48.106;11.548;2023-02-10T13:25:33;14.30;;;9.48;;
29812;SDS011;16707;48.106;11.548;2023-02-10T13:28:11;16.35;;;8.50;;
29812;SDS011;16707;48.106;11.548;2023-02-10T13:30:47;18.83;;;10.52;;
29812;SDS011;16707;48.106;11.548;2023-02-10T13:33:23;17.67;;;9.93;;
29812;SDS011;16707;48.106;11.548;2023-02-10T13:35:57;17.23;;;9.77;;
29812;SDS011;16707;48.106;11.548;2023-02-10T13:38:26;18.95;;;10.25;;
29812;SDS011;16707;48.106;11.548;2023-02-10T13:40:58;16.05;;;9.38;;
29812;SDS011;16707;48.106;11.548;2023-02-10T13:43:39;16.75;;;10.40;;
29812;SDS011;16707;48.106;11.548;2023-02-10T13:46:14;15.05;;;8.70;;
29812;SDS011;16707;48.106;11.548;2023-02-10T13:48:50;13.18;;;8.98;;
29812;SDS011;16707;48.106;11.548;2023-02-10T13:51:26;17.00;;;9.93;;
29812;SDS011;16707;48.106;11.548;2023-02-10T13:53:56;16.63;;;8.38;;
29812;SDS011;16707;48.106;11.548;2023-02-10T13:56:25;18.95;;;9.90;;
29812;SDS011;16707;48.106;11.548;2023-02-10T13:58:58;15.80;;;9.32;;
29812;SDS011;16707;48.106;11.548;2023-02-10T14:01:33;16.02;;;9.15;;
29812;SDS011;16707;48.106;11.548;2023-02-10T14:04:03;19.67;;;10.55;;
29812;SDS011;16707;48.106;11.548;2023-02-10T14:06:35;17.67;;;9.98;;
29812;SDS011;16707;48.106;11.548;2023-02-10T14:09:04;17.70;;;10.77;;
29812;SDS011;16707;48.106;11.548;2023-02-10T14:11:43;17.58;;;9.43;;
29812;SDS011;16707;48.106;11.548;2023-02-10T14:14:19;18.17;;;10.15;;
29812;SDS011;16707;48.106;11.548;2023-02-10T14:17:00;20.05;;;10.43;;
29812;SDS011;16707;48.106;11.548;2023-02-10T14:19:30;19.73;;;12.80;;
29812;SDS011;16707;48.106;11.548;2023-02-10T14:21:59;16.08;;;9.80;;
29812;SDS011;16707;48.106;11.548;2023-02-10T14:24:27;22.05;;;10.30;;
29812;SDS011;16707;48.106;11.548;2023-02-10T14:26:56;19.50;;;10.90;;
29812;SDS011;16707;48.106;11.548;2023-02-10T14:29:26;18.80;;;10.60;;
29812;SDS011;16707;48.106;11.548;2023-02-10T14:31:57;18.30;;;10.80;;
29812;SDS011;16707;48.106;11.548;2023-02-10T14:34:26;18.73;;;11.02;;
29812;SDS011;16707;48.106;11.548;2023-02-10T14:36:55;18.25;;;11.05;;